createdAt,value
2018-11-27T00:00:27.895Z,16.37
2018-11-27T00:02:53.903Z,14.57
2018-11-27T00:05:19.903Z,16.40
2018-11-27T00:07:45.890Z,16.33
2018-11-27T00:10:12.635Z,17.17
2018-11-27T00:12:39.375Z,17.40
2018-11-27T00:15:06.127Z,17.20
2018-11-27T00:17:32.878Z,17.57
2018-11-27T00:19:58.891Z,17.27
2018-11-27T00:22:25.639Z,15.47
2018-11-27T00:24:51.640Z,16.90
2018-11-27T00:27:18.368Z,15.73
2018-11-27T00:29:44.350Z,16.80
2018-11-27T00:32:10.335Z,14.53
2018-11-27T00:34:37.067Z,17.80
2018-11-27T00:37:03.078Z,16.80
2018-11-27T00:39:29.072Z,14.20
2018-11-27T00:41:55.079Z,16.37
2018-11-27T00:44:21.071Z,17.23
2018-11-27T00:46:47.824Z,15.70
2018-11-27T00:49:13.810Z,17.23
2018-11-27T00:51:39.799Z,16.20
2018-11-27T00:54:05.810Z,17.53
2018-11-27T00:56:31.794Z,16.83
2018-11-27T00:58:57.775Z,17.63
2018-11-27T01:01:23.822Z,15.57
2018-11-27T01:03:49.844Z,15.70
2018-11-27T01:06:16.607Z,15.40
2018-11-27T01:08:43.354Z,16.10
2018-11-27T01:11:10.085Z,13.40
2018-11-27T01:13:36.859Z,17.30
2018-11-27T01:16:02.854Z,17.13
2018-11-27T01:18:28.855Z,17.60
2018-11-27T01:20:54.846Z,17.23
2018-11-27T01:23:20.835Z,15.73
2018-11-27T01:25:46.854Z,15.20
2018-11-27T01:28:13.592Z,16.60
2018-11-27T01:30:40.354Z,17.08
2018-11-27T01:33:06.351Z,17.63
2018-11-27T01:35:32.366Z,18.63
2018-11-27T01:37:58.358Z,15.80
2018-11-27T01:40:24.432Z,17.20
2018-11-27T01:42:50.436Z,17.60
2018-11-27T01:45:16.468Z,16.90
2018-11-27T01:47:43.220Z,16.90
2018-11-27T01:50:09.943Z,16.63
2018-11-27T01:52:35.981Z,17.17
2018-11-27T01:55:02.703Z,16.40
2018-11-27T01:57:28.703Z,16.50
2018-11-27T01:59:54.730Z,17.93
2018-11-27T02:02:20.715Z,16.40
2018-11-27T02:04:46.702Z,17.27
2018-11-27T02:07:12.723Z,18.73
2018-11-27T02:09:38.734Z,15.97
2018-11-27T02:12:04.719Z,14.83
2018-11-27T02:14:30.705Z,16.90
2018-11-27T02:16:56.703Z,16.10
2018-11-27T02:19:22.708Z,15.97
2018-11-27T02:21:48.724Z,16.70
2018-11-27T02:24:14.723Z,16.83
2018-11-27T02:26:40.743Z,16.47
2018-11-27T02:29:06.755Z,18.80
2018-11-27T02:31:33.498Z,17.43
2018-11-27T02:34:00.238Z,17.13
2018-11-27T02:36:26.971Z,17.17
2018-11-27T02:38:52.968Z,15.73
2018-11-27T02:41:18.952Z,15.97
2018-11-27T02:43:44.955Z,17.20
2018-11-27T02:46:10.951Z,16.57
2018-11-27T02:48:36.946Z,17.53
2018-11-27T02:51:02.936Z,16.13
2018-11-27T02:53:28.929Z,17.90
2018-11-27T02:55:54.915Z,16.40
2018-11-27T02:58:20.940Z,14.40
2018-11-27T03:00:46.944Z,15.40
2018-11-27T03:03:12.964Z,16.87
2018-11-27T03:05:39.019Z,17.33
2018-11-27T03:08:05.018Z,17.03
2018-11-27T03:10:31.007Z,17.13
2018-11-27T03:12:57.762Z,17.73
2018-11-27T03:15:24.486Z,15.90
2018-11-27T03:17:51.234Z,16.80
2018-11-27T03:20:24.248Z,16.57
2018-11-27T03:22:50.266Z,16.50
2018-11-27T03:25:16.260Z,16.80
2018-11-27T03:27:42.997Z,16.27
2018-11-27T03:30:09.728Z,17.37
2018-11-27T03:32:36.464Z,18.93
2018-11-27T03:35:02.464Z,16.30
2018-11-27T03:37:28.469Z,16.37
2018-11-27T03:39:54.453Z,17.47
2018-11-27T03:42:30.472Z,16.08
2018-11-27T03:44:56.464Z,17.40
2018-11-27T03:47:22.464Z,17.03
2018-11-27T03:49:48.906Z,17.50
2018-11-27T03:52:14.467Z,17.40
2018-11-27T03:54:40.438Z,18.13
2018-11-27T03:57:06.460Z,16.60
2018-11-27T03:59:32.472Z,17.47
2018-11-27T04:01:59.181Z,17.20
2018-11-27T04:04:25.196Z,18.80
2018-11-27T04:06:51.179Z,17.37
2018-11-27T04:09:17.185Z,17.77
2018-11-27T04:11:43.922Z,16.67
2018-11-27T04:14:09.941Z,19.07
2018-11-27T04:16:36.698Z,17.80
2018-11-27T04:19:02.680Z,21.70
2018-11-27T04:21:28.717Z,27.37
2018-11-27T04:23:55.482Z,25.60
2018-11-27T04:26:22.210Z,19.67
2018-11-27T04:28:49.014Z,20.40
2018-11-27T04:31:15.116Z,20.07
2018-11-27T04:33:41.090Z,18.10
2018-11-27T04:36:07.838Z,20.53
2018-11-27T04:38:34.614Z,19.67
2018-11-27T04:41:00.616Z,16.47
2018-11-27T04:43:27.409Z,18.13
2018-11-27T04:45:53.449Z,19.20
2018-11-27T04:48:19.438Z,17.87
2018-11-27T04:50:45.448Z,18.67
2018-11-27T04:53:11.464Z,19.47
2018-11-27T04:55:37.452Z,18.97
2018-11-27T04:58:03.437Z,17.30
2018-11-27T05:00:29.441Z,18.13
2018-11-27T05:02:55.422Z,19.70
2018-11-27T05:05:21.449Z,17.53
2018-11-27T05:07:48.221Z,18.00
2018-11-27T05:10:14.219Z,17.57
2018-11-27T05:12:40.981Z,17.80
2018-11-27T05:15:07.711Z,18.20
2018-11-27T05:17:34.438Z,17.27
2018-11-27T05:20:01.194Z,18.60
2018-11-27T05:22:27.936Z,17.70
2018-11-27T05:24:54.676Z,17.83
2018-11-27T05:27:20.680Z,19.87
2018-11-27T05:29:46.664Z,17.00
2018-11-27T05:32:12.666Z,18.00
2018-11-27T05:34:38.650Z,17.20
2018-11-27T05:37:04.677Z,18.67
2018-11-27T05:39:31.432Z,18.60
2018-11-27T05:41:58.155Z,22.50
2018-11-27T05:44:24.162Z,19.00
2018-11-27T05:46:50.163Z,18.53
2018-11-27T05:49:16.146Z,19.60
2018-11-27T05:51:42.875Z,20.87
2018-11-27T05:54:09.647Z,16.90
2018-11-27T05:56:38.238Z,19.40
2018-11-27T05:59:05.789Z,18.27
2018-11-27T06:01:31.773Z,18.37
2018-11-27T06:03:58.511Z,19.13
2018-11-27T06:06:24.496Z,18.13
2018-11-27T06:08:50.498Z,20.23
2018-11-27T06:11:16.487Z,20.50
2018-11-27T06:13:42.479Z,23.03
2018-11-27T06:16:08.479Z,18.87
2018-11-27T06:18:34.487Z,20.47
2018-11-27T06:21:00.477Z,19.67
2018-11-27T06:23:26.460Z,21.30
2018-11-27T06:25:52.474Z,21.53
2018-11-27T06:28:18.464Z,21.40
2018-11-27T06:30:45.197Z,25.10
2018-11-27T06:33:11.939Z,22.37
2018-11-27T06:35:38.660Z,20.20
2018-11-27T06:38:04.686Z,17.90
2018-11-27T06:40:30.675Z,21.07
2018-11-27T06:42:56.667Z,21.17
2018-11-27T06:45:22.660Z,21.53
2018-11-27T06:47:48.640Z,20.60
2018-11-27T06:50:14.647Z,20.40
2018-11-27T06:52:40.652Z,20.07
2018-11-27T06:55:06.633Z,22.27
2018-11-27T06:57:32.631Z,22.53
2018-11-27T06:59:58.639Z,18.87
2018-11-27T07:02:24.625Z,23.47
2018-11-27T07:04:51.367Z,20.60
2018-11-27T07:07:18.098Z,19.20
2018-11-27T07:09:44.153Z,19.87
2018-11-27T07:12:10.160Z,19.57
2018-11-27T07:14:36.892Z,21.80
2018-11-27T07:17:02.904Z,18.83
2018-11-27T07:19:28.893Z,19.00
2018-11-27T07:21:54.915Z,20.07
2018-11-27T07:24:20.914Z,22.87
2018-11-27T07:26:56.912Z,18.80
2018-11-27T07:29:22.906Z,20.23
2018-11-27T07:31:48.882Z,21.30
2018-11-27T07:34:14.886Z,19.37
2018-11-27T07:36:40.899Z,19.63
2018-11-27T07:39:06.919Z,20.30
2018-11-27T07:41:32.887Z,21.90
2018-11-27T07:43:59.658Z,20.63
2018-11-27T07:46:25.668Z,19.85
2018-11-27T07:48:52.410Z,19.87
2018-11-27T07:51:18.431Z,20.83
2018-11-27T07:53:44.433Z,22.60
2018-11-27T07:56:10.433Z,20.07
2018-11-27T07:58:36.469Z,21.60
2018-11-27T08:01:02.482Z,21.00
2018-11-27T08:03:28.470Z,24.23
2018-11-27T08:05:54.494Z,22.00
2018-11-27T08:08:20.472Z,19.37
2018-11-27T08:10:46.459Z,17.43
2018-11-27T08:13:12.466Z,20.80
2018-11-27T08:15:38.495Z,19.37
2018-11-27T08:18:04.487Z,21.10
2018-11-27T08:20:31.211Z,21.40
2018-11-27T08:22:57.212Z,20.47
2018-11-27T08:25:23.222Z,20.23
2018-11-27T08:27:49.212Z,19.90
2018-11-27T08:30:15.204Z,18.77
2018-11-27T08:32:41.251Z,18.30
2018-11-27T08:35:07.294Z,17.63
2018-11-27T08:37:33.294Z,19.33
2018-11-27T08:40:00.045Z,19.27
2018-11-27T08:42:26.064Z,19.57
2018-11-27T08:44:52.055Z,19.87
2018-11-27T08:47:18.068Z,19.80
2018-11-27T08:49:44.091Z,19.30
2018-11-27T08:52:10.078Z,18.83
2018-11-27T08:54:36.071Z,19.07
2018-11-27T08:57:02.826Z,20.00
2018-11-27T08:59:28.825Z,19.50
2018-11-27T09:01:55.579Z,24.30
2018-11-27T09:04:22.335Z,23.33
2018-11-27T09:06:48.360Z,22.43
2018-11-27T09:09:14.339Z,25.83
2018-11-27T09:11:40.331Z,22.27
2018-11-27T09:14:06.338Z,22.87
2018-11-27T09:16:32.335Z,20.00
2018-11-27T09:18:59.075Z,20.00
2018-11-27T09:21:25.827Z,19.10
2018-11-27T09:23:51.949Z,19.47
2018-11-27T09:26:18.685Z,18.77
2018-11-27T09:28:45.408Z,19.13
2018-11-27T09:31:12.155Z,21.13
2018-11-27T09:36:12.508Z,18.57
2018-11-27T09:38:39.246Z,18.13
2018-11-27T09:41:05.999Z,19.03
2018-11-27T09:43:32.758Z,21.10
2018-11-27T09:45:58.748Z,20.07
2018-11-27T09:48:24.738Z,21.23
2018-11-27T09:50:57.694Z,19.03
2018-11-27T09:53:23.666Z,19.40
2018-11-27T09:55:50.562Z,21.00
2018-11-27T09:58:16.580Z,20.03
2018-11-27T10:00:42.585Z,21.40
2018-11-27T10:03:09.320Z,22.53
2018-11-27T10:05:36.076Z,21.70
2018-11-27T10:08:02.136Z,19.07
2018-11-27T10:10:28.106Z,22.37
2018-11-27T10:12:54.850Z,22.73
2018-11-27T10:15:20.839Z,22.90
2018-11-27T10:17:46.820Z,23.60
2018-11-27T10:20:12.812Z,22.30
2018-11-27T10:22:38.794Z,21.87
2018-11-27T10:25:04.805Z,23.20
2018-11-27T10:27:30.783Z,22.20
2018-11-27T10:29:57.492Z,22.80
2018-11-27T10:32:23.502Z,23.10
2018-11-27T10:34:49.495Z,23.20
2018-11-27T10:37:15.490Z,23.00
2018-11-27T10:39:42.249Z,22.93
2018-11-27T10:42:08.263Z,22.77
2018-11-27T10:44:34.268Z,22.80
2018-11-27T10:47:00.282Z,24.80
2018-11-27T10:49:26.358Z,23.70
2018-11-27T10:51:52.704Z,25.80
2018-11-27T10:54:19.531Z,27.93
2018-11-27T10:56:45.527Z,26.00
2018-11-27T10:59:12.275Z,25.47
2018-11-27T11:01:38.283Z,24.50
2018-11-27T11:04:05.024Z,23.33
2018-11-27T11:06:31.778Z,26.17
2018-11-27T11:08:57.818Z,27.37
2018-11-27T11:11:23.763Z,26.23
2018-11-27T11:13:49.783Z,27.07
2018-11-27T11:16:15.771Z,28.23
2018-11-27T11:18:41.884Z,27.27
2018-11-27T11:21:08.101Z,29.60
2018-11-27T11:23:34.158Z,27.63
2018-11-27T11:26:00.176Z,28.97
2018-11-27T11:28:26.171Z,27.70
2018-11-27T11:30:52.149Z,29.73
2018-11-27T11:33:18.155Z,25.97
2018-11-27T11:35:44.168Z,29.30
2018-11-27T11:38:10.207Z,28.97
2018-11-27T11:40:36.257Z,28.83
2018-11-27T11:43:02.267Z,27.87
2018-11-27T11:45:28.286Z,28.93
2018-11-27T11:47:54.287Z,28.47
2018-11-27T11:50:20.283Z,28.97
2018-11-27T11:52:46.309Z,26.80
2018-11-27T11:55:12.321Z,29.23
2018-11-27T11:57:38.393Z,26.33
2018-11-27T12:00:04.392Z,26.73
2018-11-27T12:02:33.948Z,29.43
2018-11-27T12:04:57.916Z,26.83
2018-11-27T12:07:23.948Z,29.33
2018-11-27T12:09:49.970Z,25.83
2018-11-27T12:12:15.985Z,26.17
2018-11-27T12:14:42.011Z,30.80
2018-11-27T12:17:07.995Z,28.10
2018-11-27T12:19:34.726Z,27.13
2018-11-27T12:22:01.488Z,28.35
2018-11-27T12:24:28.232Z,26.70
2018-11-27T12:26:54.227Z,29.73
2018-11-27T12:29:20.227Z,27.60
2018-11-27T12:31:46.224Z,27.10
2018-11-27T12:34:12.316Z,26.07
2018-11-27T12:36:38.315Z,25.27
2018-11-27T12:39:04.321Z,25.77
2018-11-27T12:41:30.343Z,28.43
2018-11-27T12:43:56.351Z,31.20
2018-11-27T12:46:22.376Z,26.50
2018-11-27T12:48:48.421Z,27.80
2018-11-27T12:51:14.807Z,26.27
2018-11-27T12:53:41.231Z,27.73
2018-11-27T12:56:07.326Z,31.40
2018-11-27T12:58:33.431Z,26.30
2018-11-27T13:01:01.558Z,28.70
2018-11-27T13:03:26.343Z,27.47
2018-11-27T13:05:53.153Z,28.57
2018-11-27T13:08:19.251Z,29.77
2018-11-27T13:10:45.314Z,29.10
2018-11-27T13:13:11.315Z,26.23
2018-11-27T13:15:37.317Z,29.77
2018-11-27T13:18:03.352Z,32.00
2018-11-27T13:20:29.359Z,29.17
2018-11-27T13:22:55.344Z,32.57
2018-11-27T13:25:22.107Z,35.63
2018-11-27T13:27:48.123Z,27.30
2018-11-27T13:30:14.946Z,29.57
2018-11-27T13:32:40.957Z,30.43
2018-11-27T13:35:06.945Z,30.57
2018-11-27T13:37:33.195Z,28.10
2018-11-27T13:39:59.277Z,30.67
2018-11-27T13:42:25.283Z,33.57
2018-11-27T13:44:51.998Z,28.80
2018-11-27T13:47:17.997Z,28.20
2018-11-27T13:49:44.004Z,27.83
2018-11-27T13:52:10.065Z,31.17
2018-11-27T13:54:36.065Z,31.10
2018-11-27T13:57:02.062Z,28.80
2018-11-27T13:59:28.078Z,26.93
2018-11-27T14:01:54.082Z,30.57
2018-11-27T14:04:20.866Z,31.90
2018-11-27T14:06:46.861Z,29.30
2018-11-27T14:09:12.860Z,30.47
2018-11-27T14:11:39.418Z,31.77
2018-11-27T14:14:05.443Z,34.03
2018-11-27T14:16:32.238Z,36.80
2018-11-27T14:18:58.244Z,30.20
2018-11-27T14:21:24.287Z,28.43
2018-11-27T14:23:50.375Z,29.40
2018-11-27T14:26:17.103Z,29.13
2018-11-27T14:28:43.149Z,27.50
2018-11-27T14:31:09.151Z,29.40
2018-11-27T14:33:35.177Z,27.13
2018-11-27T14:36:01.149Z,31.30
2018-11-27T14:38:27.141Z,28.23
2018-11-27T14:40:53.196Z,29.23
2018-11-27T14:43:19.219Z,28.65
2018-11-27T14:45:45.999Z,30.13
2018-11-27T14:48:12.759Z,32.13
2018-11-27T14:50:38.766Z,31.20
2018-11-27T14:53:04.760Z,28.80
2018-11-27T14:55:30.762Z,32.73
2018-11-27T14:57:56.785Z,28.30
2018-11-27T15:00:22.795Z,30.70
2018-11-27T15:02:48.810Z,27.17
2018-11-27T15:05:14.816Z,29.40
2018-11-27T15:07:41.568Z,25.60
2018-11-27T15:10:07.571Z,27.65
2018-11-27T15:12:34.345Z,30.43
2018-11-27T15:15:00.400Z,28.33
2018-11-27T15:17:26.458Z,27.50
2018-11-27T15:19:52.504Z,27.70
2018-11-27T15:22:18.603Z,26.67
2018-11-27T15:24:45.354Z,32.70
2018-11-27T15:27:11.495Z,27.20
2018-11-27T15:29:37.516Z,26.30
2018-11-27T15:32:03.619Z,26.80
2018-11-27T15:34:29.766Z,27.10
2018-11-27T15:36:55.804Z,26.80
2018-11-27T15:39:21.843Z,27.80
2018-11-27T15:41:47.874Z,27.63
2018-11-27T15:44:13.926Z,29.27
2018-11-27T15:46:39.948Z,27.80
2018-11-27T15:49:06.751Z,24.57
2018-11-27T15:51:32.808Z,24.37
2018-11-27T15:53:58.801Z,23.50
2018-11-27T15:56:24.827Z,27.10
2018-11-27T15:58:50.844Z,26.70
2018-11-27T16:01:16.860Z,25.33
2018-11-27T16:03:42.876Z,29.80
2018-11-27T16:06:08.886Z,32.97
2018-11-27T16:08:34.894Z,31.23
2018-11-27T16:11:00.963Z,29.35
2018-11-27T16:13:27.026Z,25.33
2018-11-27T16:15:54.034Z,27.47
2018-11-27T16:18:20.850Z,25.73
2018-11-27T16:20:47.663Z,24.00
2018-11-27T16:23:13.922Z,25.53
2018-11-27T16:25:40.071Z,33.47
2018-11-27T16:28:06.109Z,36.97
2018-11-27T16:30:32.173Z,35.83
2018-11-27T16:32:58.460Z,26.30
2018-11-27T16:35:24.635Z,23.33
2018-11-27T16:37:50.715Z,26.37
2018-11-27T16:40:16.740Z,27.67
2018-11-27T16:42:42.861Z,28.40
2018-11-27T16:45:09.063Z,27.43
2018-11-27T16:47:35.819Z,26.20
2018-11-27T16:50:01.853Z,27.87
2018-11-27T16:52:27.913Z,26.27
2018-11-27T16:54:53.991Z,27.33
2018-11-27T16:57:20.023Z,28.20
2018-11-27T16:59:46.126Z,27.97
2018-11-27T17:02:12.190Z,26.20
2018-11-27T17:04:38.387Z,28.87
2018-11-27T17:07:04.500Z,34.60
2018-11-27T17:09:30.590Z,35.70
2018-11-27T17:11:56.608Z,33.73
2018-11-27T17:14:22.680Z,29.90
2018-11-27T17:16:48.876Z,31.83
2018-11-27T17:19:14.926Z,30.40
2018-11-27T17:21:41.667Z,28.43
2018-11-27T17:24:08.555Z,28.40
2018-11-27T17:26:34.931Z,25.80
2018-11-27T17:29:01.293Z,27.70
2018-11-27T17:31:27.579Z,29.47
2018-11-27T17:33:54.019Z,26.67
2018-11-27T17:36:20.802Z,27.87
2018-11-27T17:38:47.932Z,27.03
2018-11-27T17:41:14.456Z,29.07
2018-11-27T17:43:40.907Z,28.00
2018-11-27T17:46:07.193Z,26.13
2018-11-27T17:48:33.547Z,25.87
2018-11-27T17:51:00.676Z,26.63
2018-11-27T17:53:27.731Z,30.13
2018-11-27T17:55:55.644Z,26.97
2018-11-27T17:58:22.894Z,27.73
2018-11-27T18:00:48.409Z,26.10
2018-11-27T18:03:14.712Z,27.83
2018-11-27T18:05:41.077Z,29.10
2018-11-27T18:08:07.485Z,28.33
2018-11-27T18:10:33.911Z,30.40
2018-11-27T18:13:00.192Z,29.00
2018-11-27T18:15:27.368Z,28.77
2018-11-27T18:17:53.794Z,29.13
2018-11-27T18:20:20.803Z,29.23
2018-11-27T18:22:47.037Z,27.37
2018-11-27T18:25:13.108Z,25.77
2018-11-27T18:27:40.442Z,25.13
2018-11-27T18:30:06.715Z,26.07
2018-11-27T18:32:32.892Z,27.30
2018-11-27T18:34:58.935Z,26.30
2018-11-27T18:37:25.068Z,27.77
2018-11-27T18:39:52.214Z,28.40
2018-11-27T18:42:18.526Z,26.40
2018-11-27T18:44:45.553Z,25.37
2018-11-27T18:47:11.758Z,23.93
2018-11-27T18:49:37.942Z,26.60
2018-11-27T18:52:04.198Z,25.57
2018-11-27T18:54:30.459Z,24.10
2018-11-27T18:56:56.850Z,27.27
2018-11-27T18:59:23.179Z,25.30
2018-11-27T19:01:49.414Z,25.80
2018-11-27T19:04:15.717Z,25.03
2018-11-27T19:06:41.760Z,26.40
2018-11-27T19:09:07.986Z,24.33
2018-11-27T19:11:34.719Z,24.40
2018-11-27T19:14:01.989Z,24.10
2018-11-27T19:16:29.913Z,24.27
2018-11-27T19:18:56.470Z,26.03
2018-11-27T19:21:23.516Z,27.27
2018-11-27T19:23:49.825Z,25.67
2018-11-27T19:26:16.118Z,24.87
2018-11-27T19:28:42.458Z,25.40
2018-11-27T19:31:08.753Z,24.27
2018-11-27T19:33:35.027Z,22.63
2018-11-27T19:36:01.221Z,23.17
2018-11-27T19:38:27.471Z,21.10
2018-11-27T19:40:53.729Z,20.60
2018-11-27T19:43:19.957Z,22.90
2018-11-27T19:45:46.166Z,24.00
2018-11-27T19:48:12.510Z,21.80
2018-11-27T19:50:38.578Z,23.60
2018-11-27T19:53:04.567Z,24.60
2018-11-27T19:55:30.662Z,23.03
2018-11-27T19:57:57.623Z,22.80
2018-11-27T20:00:23.636Z,23.63
2018-11-27T20:02:50.908Z,23.10
2018-11-27T20:05:16.939Z,22.90
2018-11-27T20:07:42.955Z,21.00
2018-11-27T20:10:09.058Z,22.83
2018-11-27T20:12:35.043Z,24.07
2018-11-27T20:15:01.011Z,23.10
2018-11-27T20:17:27.079Z,23.30
2018-11-27T20:19:53.096Z,23.00
2018-11-27T20:22:19.401Z,22.27
2018-11-27T20:24:45.406Z,23.27
2018-11-27T20:27:11.442Z,23.60
2018-11-27T20:29:37.479Z,22.93
2018-11-27T20:32:03.668Z,21.90
2018-11-27T20:34:29.926Z,25.00
2018-11-27T20:36:55.974Z,23.60
2018-11-27T20:39:23.384Z,22.53
2018-11-27T20:41:49.536Z,22.13
2018-11-27T20:44:15.553Z,24.07
2018-11-27T20:46:41.657Z,23.60
2018-11-27T20:49:07.728Z,23.90
2018-11-27T20:51:33.747Z,25.73
2018-11-27T20:53:59.899Z,22.60
2018-11-27T20:56:25.904Z,23.30
2018-11-27T20:58:51.921Z,23.23
2018-11-27T21:01:17.932Z,23.20
2018-11-27T21:03:44.677Z,25.73
2018-11-27T21:06:10.650Z,23.60
2018-11-27T21:08:36.690Z,25.77
2018-11-27T21:11:08.086Z,24.52
2018-11-27T21:13:28.649Z,22.63
2018-11-27T21:15:54.637Z,25.00
2018-11-27T21:18:20.608Z,24.00
2018-11-27T21:20:47.137Z,26.10
2018-11-27T21:23:13.205Z,26.13
2018-11-27T21:25:39.212Z,29.10
2018-11-27T21:28:05.209Z,24.37
2018-11-27T21:30:31.232Z,28.93
2018-11-27T21:32:57.940Z,28.27
2018-11-27T21:35:23.984Z,27.63
2018-11-27T21:37:50.783Z,24.53
2018-11-27T21:40:16.800Z,27.73
2018-11-27T21:42:42.825Z,27.50
2018-11-27T21:45:08.838Z,24.63
2018-11-27T21:47:34.823Z,26.30
2018-11-27T21:50:00.820Z,27.03
2018-11-27T21:52:26.864Z,27.33
2018-11-27T21:54:53.609Z,29.02
2018-11-27T21:57:20.378Z,29.42
2018-11-27T21:59:46.459Z,25.55
2018-11-27T22:02:12.464Z,23.80
2018-11-27T22:04:38.467Z,26.00
2018-11-27T22:07:04.455Z,26.30
2018-11-27T22:09:31.229Z,24.50
2018-11-27T22:11:57.252Z,25.23
2018-11-27T22:14:23.469Z,24.90
2018-11-27T22:16:49.521Z,24.97
2018-11-27T22:19:15.519Z,25.57
2018-11-27T22:21:41.550Z,25.30
2018-11-27T22:24:07.547Z,26.87
2018-11-27T22:26:33.577Z,23.17
2018-11-27T22:28:59.570Z,22.50
2018-11-27T22:31:26.386Z,23.10
2018-11-27T22:33:52.398Z,25.70
2018-11-27T22:36:18.420Z,26.00
2018-11-27T22:38:44.447Z,33.17
2018-11-27T22:41:10.464Z,27.57
2018-11-27T22:43:36.461Z,25.30
2018-11-27T22:46:02.479Z,24.70
2018-11-27T22:48:29.308Z,26.80
2018-11-27T22:50:56.135Z,23.80
2018-11-27T22:53:22.228Z,25.10
2018-11-27T22:55:48.280Z,25.93
2018-11-27T22:58:14.334Z,23.00
2018-11-27T23:00:40.335Z,24.10
2018-11-27T23:03:06.376Z,23.27
2018-11-27T23:05:32.384Z,25.27
2018-11-27T23:07:58.411Z,22.63
2018-11-27T23:10:25.188Z,24.73
2018-11-27T23:12:51.195Z,23.30
2018-11-27T23:15:17.951Z,20.80
2018-11-27T23:17:43.985Z,22.57
2018-11-27T23:20:10.007Z,24.27
2018-11-27T23:22:36.028Z,23.13
2018-11-27T23:25:02.045Z,21.90
2018-11-27T23:27:28.069Z,21.83
2018-11-27T23:29:54.091Z,20.97
2018-11-27T23:32:20.120Z,25.40
2018-11-27T23:34:46.192Z,20.20
2018-11-27T23:37:12.234Z,22.23
2018-11-27T23:39:38.246Z,21.87
2018-11-27T23:42:05.043Z,23.37
2018-11-27T23:44:31.038Z,21.77
2018-11-27T23:46:57.087Z,25.40
2018-11-27T23:49:23.113Z,26.45
2018-11-27T23:51:49.128Z,24.73
2018-11-27T23:54:15.156Z,22.93
2018-11-27T23:56:41.198Z,24.87
2018-11-27T23:59:07.223Z,21.90
